Terminal Aerodrome Forecast
Issued by NWS North Platte, NE

Home | Current Version | Previous Version | Graphics & Text | Print | Product List | Glossary On
Versions: 1 2 3 4 5 6 7 8 9 10 11 12 13 14 15 16 17 18 19
093
FTUS43 KLBF 291120
TAFVTN
TAF
KVTN 291120Z 2912/3012 35007KT P6SM OVC005
     FM291500 05008KT P6SM OVC009
     FM291800 04009KT P6SM OVC015
     FM292300 05009KT P6SM OVC007
     FM300200 01006KT 4SM -RA BR OVC005=

USA.gov is the U.S. government's official web portal to all federal, state and local government web resources and services.